createdAt,value
2022-12-28T00:02:33.931Z,85.77
2022-12-28T00:06:17.146Z,86.24
2022-12-28T00:09:59.800Z,86.32
2022-12-28T00:13:42.488Z,86.23
2022-12-28T00:17:26.538Z,86.40
2022-12-28T00:21:09.217Z,86.86
2022-12-28T00:24:51.879Z,87.82
2022-12-28T00:28:34.718Z,88.29
2022-12-28T00:32:17.377Z,87.83
2022-12-28T00:36:02.723Z,86.44
2022-12-28T00:39:47.358Z,86.59
2022-12-28T00:43:30.047Z,86.36
2022-12-28T00:47:12.721Z,86.32
2022-12-28T00:51:03.878Z,87.14
2022-12-28T00:54:46.552Z,87.01
2022-12-28T00:58:29.205Z,87.12
2022-12-28T01:02:11.918Z,86.92
2022-12-28T01:05:54.639Z,87.33
2022-12-28T01:09:38.656Z,86.76
2022-12-28T01:13:21.269Z,86.22
2022-12-28T01:17:04.092Z,85.79
2022-12-28T01:20:46.695Z,86.10
2022-12-28T01:24:29.383Z,86.55
2022-12-28T01:28:13.365Z,85.56
2022-12-28T01:31:56.057Z,84.59
2022-12-28T01:35:38.766Z,85.08
2022-12-28T01:39:21.428Z,85.11
2022-12-28T01:43:07.859Z,86.29
2022-12-28T01:46:53.603Z,86.96
2022-12-28T01:50:36.337Z,87.07
2022-12-28T01:54:20.575Z,86.20
2022-12-28T01:58:06.589Z,86.69
2022-12-28T02:01:51.183Z,86.91
2022-12-28T02:05:37.754Z,87.34
2022-12-28T02:09:22.918Z,87.81
2022-12-28T02:13:06.254Z,87.50
2022-12-28T02:16:49.145Z,86.93
2022-12-28T02:20:40.025Z,87.15
2022-12-28T02:24:49.820Z,86.22
2022-12-28T02:29:21.831Z,86.57
2022-12-28T02:33:09.712Z,86.13
2022-12-28T02:36:56.645Z,86.70
2022-12-28T02:40:42.886Z,86.56
2022-12-28T02:44:44.342Z,87.64
2022-12-28T02:48:44.630Z,87.54
2022-12-28T02:52:37.026Z,87.00
2022-12-28T02:56:26.498Z,86.18
2022-12-28T03:00:11.991Z,86.29
2022-12-28T03:04:04.314Z,85.59
2022-12-28T03:08:10.542Z,85.46
2022-12-28T03:11:55.617Z,84.55
2022-12-28T03:15:39.874Z,84.58
2022-12-28T03:19:42.289Z,84.63
2022-12-28T03:23:43.679Z,85.45
2022-12-28T03:27:45.065Z,85.33
2022-12-28T03:31:30.609Z,85.33
2022-12-28T03:35:13.398Z,85.41
2022-12-28T03:39:01.899Z,85.09
2022-12-28T03:43:04.067Z,85.23
2022-12-28T03:46:50.851Z,85.80
2022-12-28T03:50:36.451Z,84.52
2022-12-28T03:54:19.680Z,85.03
2022-12-28T03:58:02.365Z,84.47
2022-12-28T04:01:45.276Z,84.09
2022-12-28T04:05:29.371Z,84.14
2022-12-28T04:09:12.073Z,84.35
2022-12-28T04:12:56.593Z,84.17
2022-12-28T04:16:39.311Z,84.20
2022-12-28T04:20:21.952Z,84.36
2022-12-28T04:24:06.604Z,84.16
2022-12-28T04:27:49.297Z,84.07
2022-12-28T04:31:32.122Z,84.11
2022-12-28T04:35:15.144Z,83.90
2022-12-28T04:38:59.429Z,83.09
2022-12-28T04:42:43.423Z,82.66
2022-12-28T04:46:26.174Z,82.86
2022-12-28T04:50:09.535Z,82.35
2022-12-28T04:53:52.798Z,82.37
2022-12-28T04:57:35.556Z,82.35
2022-12-28T05:01:20.712Z,82.48
2022-12-28T05:05:03.403Z,82.22
2022-12-28T05:08:46.343Z,82.30
2022-12-28T05:12:28.988Z,81.98
2022-12-28T05:16:13.261Z,81.64
2022-12-28T05:19:57.412Z,80.85
2022-12-28T05:23:40.472Z,80.54
2022-12-28T05:27:23.123Z,81.02
2022-12-28T05:31:08.163Z,81.25
2022-12-28T05:34:50.889Z,80.79
2022-12-28T05:38:35.575Z,80.68
2022-12-28T05:42:18.239Z,81.09
2022-12-28T05:46:04.797Z,81.19
2022-12-28T05:49:47.635Z,81.21
2022-12-28T05:53:31.419Z,80.31
2022-12-28T05:57:15.447Z,80.57
2022-12-28T06:01:05.640Z,81.00
2022-12-28T06:04:48.332Z,81.11
2022-12-28T06:08:31.029Z,80.71
2022-12-28T06:12:15.194Z,80.48
2022-12-28T06:15:57.896Z,79.58
2022-12-28T06:19:40.567Z,79.60
2022-12-28T06:23:23.767Z,79.86
2022-12-28T06:27:06.420Z,79.85
2022-12-28T06:30:52.769Z,79.14
2022-12-28T06:34:35.810Z,79.14
2022-12-28T06:38:18.503Z,79.35
2022-12-28T06:42:01.280Z,79.71
2022-12-28T06:45:44.021Z,79.57
2022-12-28T06:49:28.137Z,79.61
2022-12-28T06:53:10.940Z,79.75
2022-12-28T06:56:53.654Z,79.58
2022-12-28T07:00:36.334Z,78.85
2022-12-28T07:04:19.028Z,78.90
2022-12-28T07:08:06.442Z,78.17
2022-12-28T07:11:53.503Z,77.94
2022-12-28T07:15:37.252Z,78.55
2022-12-28T07:19:19.954Z,78.13
2022-12-28T07:23:04.120Z,77.94
2022-12-28T07:26:46.781Z,77.80
2022-12-28T07:30:29.765Z,78.02
2022-12-28T07:34:12.829Z,78.11
2022-12-28T07:37:55.692Z,77.16
2022-12-28T07:41:39.749Z,77.48
2022-12-28T07:45:22.435Z,77.00
2022-12-28T07:49:05.677Z,76.76
2022-12-28T07:52:48.385Z,76.61
2022-12-28T08:00:16.553Z,76.06
2022-12-28T08:04:01.019Z,76.33
2022-12-28T08:07:43.779Z,76.36
2022-12-28T08:11:27.925Z,76.09
2022-12-28T08:15:11.410Z,75.44
2022-12-28T08:18:56.288Z,75.26
2022-12-28T08:22:38.995Z,74.75
2022-12-28T08:26:22.811Z,74.75
2022-12-28T08:30:06.555Z,73.98
2022-12-28T08:33:49.735Z,73.72
2022-12-28T08:37:33.884Z,72.63
2022-12-28T08:41:18.177Z,72.41
2022-12-28T08:45:00.853Z,71.78
2022-12-28T08:48:44.073Z,71.91
2022-12-28T08:52:27.613Z,71.51
2022-12-28T08:56:13.652Z,71.79
2022-12-28T08:59:56.368Z,70.63
2022-12-28T09:03:39.972Z,71.09
2022-12-28T09:07:22.688Z,70.43
2022-12-28T09:11:06.930Z,70.53
2022-12-28T09:14:51.082Z,69.62
2022-12-28T09:18:34.036Z,69.29
2022-12-28T09:22:16.785Z,69.14
2022-12-28T09:26:05.027Z,68.63
2022-12-28T09:29:47.681Z,67.78
2022-12-28T09:34:23.436Z,67.82
2022-12-28T09:37:51.918Z,66.69
2022-12-28T09:41:40.591Z,67.21
2022-12-28T09:45:26.749Z,67.44
2022-12-28T09:49:14.864Z,66.63
2022-12-28T09:53:09.440Z,67.04
2022-12-28T09:56:52.961Z,66.52
2022-12-28T10:00:39.840Z,65.88
2022-12-28T10:04:24.354Z,65.33
2022-12-28T10:08:07.175Z,65.17
2022-12-28T10:11:49.826Z,65.69
2022-12-28T10:15:33.647Z,64.98
2022-12-28T10:19:18.571Z,65.06
2022-12-28T10:23:03.298Z,65.67
2022-12-28T10:26:48.098Z,65.28
2022-12-28T10:30:30.798Z,64.47
2022-12-28T10:34:17.647Z,64.12
2022-12-28T10:38:04.155Z,64.05
2022-12-28T10:41:46.910Z,63.38
2022-12-28T10:45:36.107Z,63.50
2022-12-28T10:49:18.895Z,63.65
2022-12-28T10:53:03.008Z,63.54
2022-12-28T10:56:49.781Z,62.84
2022-12-28T11:00:32.521Z,63.41
2022-12-28T11:04:18.648Z,63.84
2022-12-28T11:08:07.564Z,64.10
2022-12-28T11:11:52.337Z,63.48
2022-12-28T11:15:35.152Z,63.63
2022-12-28T11:19:18.353Z,62.58
2022-12-28T11:23:01.433Z,62.45
2022-12-28T11:26:48.088Z,62.31
2022-12-28T11:30:32.026Z,61.82
2022-12-28T11:34:19.387Z,61.46
2022-12-28T11:38:03.985Z,60.56
2022-12-28T11:42:19.049Z,59.49
2022-12-28T11:45:55.616Z,58.92
2022-12-28T11:49:38.463Z,58.32
2022-12-28T11:53:24.099Z,57.50
2022-12-28T11:57:11.128Z,57.20
2022-12-28T12:00:53.841Z,55.88
2022-12-28T12:04:39.503Z,55.34
2022-12-28T12:08:42.637Z,54.66
2022-12-28T12:12:38.129Z,55.35
2022-12-28T12:16:24.229Z,55.18
2022-12-28T12:20:15.131Z,54.37
2022-12-28T12:24:00.035Z,54.50
2022-12-28T12:27:46.637Z,53.80
2022-12-28T12:31:31.796Z,54.00
2022-12-28T12:35:18.041Z,53.04
2022-12-28T12:39:18.608Z,53.43
2022-12-28T12:43:15.505Z,52.87
2022-12-28T12:47:19.059Z,52.09
2022-12-28T12:51:17.437Z,50.91
2022-12-28T12:55:10.768Z,50.57
2022-12-28T12:59:05.937Z,49.88
2022-12-28T13:03:20.203Z,48.20
2022-12-28T13:07:06.060Z,48.52
2022-12-28T13:10:48.997Z,47.65
2022-12-28T13:14:33.916Z,47.83
2022-12-28T13:18:44.041Z,46.51
2022-12-28T13:22:28.671Z,46.99
2022-12-28T13:26:11.883Z,46.39
2022-12-28T13:29:56.057Z,46.47
2022-12-28T13:33:38.763Z,45.56
2022-12-28T13:37:22.194Z,45.93
2022-12-28T13:41:05.118Z,46.38
2022-12-28T13:44:50.741Z,46.65
2022-12-28T13:48:35.286Z,44.45
2022-12-28T13:52:22.171Z,44.79
2022-12-28T13:56:06.855Z,46.27
2022-12-28T13:59:51.172Z,46.48
2022-12-28T14:03:41.357Z,46.64
2022-12-28T14:07:28.739Z,46.36
2022-12-28T14:11:11.936Z,46.39
2022-12-28T14:14:54.858Z,46.73
2022-12-28T14:18:39.729Z,46.64
2022-12-28T14:22:27.167Z,47.07
2022-12-28T14:26:12.016Z,46.97
2022-12-28T14:29:55.405Z,46.98
2022-12-28T14:33:52.004Z,47.39
2022-12-28T14:37:38.360Z,47.86
2022-12-28T14:41:22.484Z,47.77
2022-12-28T14:45:23.331Z,46.64
2022-12-28T14:49:37.789Z,47.08
2022-12-28T14:53:21.132Z,47.68
2022-12-28T14:57:05.956Z,48.23
2022-12-28T15:00:57.587Z,47.90
2022-12-28T15:04:42.690Z,48.30
2022-12-28T15:08:27.285Z,49.04
2022-12-28T15:12:11.844Z,49.52
2022-12-28T15:15:55.992Z,50.02
2022-12-28T15:19:38.816Z,49.82
2022-12-28T15:23:23.092Z,50.12
2022-12-28T15:27:06.266Z,50.21
2022-12-28T15:30:48.949Z,50.62
2022-12-28T15:34:31.651Z,51.28
2022-12-28T15:38:14.313Z,51.60
2022-12-28T15:41:58.392Z,52.47
2022-12-28T15:45:41.091Z,52.95
2022-12-28T15:49:23.804Z,53.61
2022-12-28T15:53:06.484Z,54.08
2022-12-28T15:56:53.212Z,55.01
2022-12-28T16:00:39.495Z,55.80
2022-12-28T16:04:25.543Z,56.50
2022-12-28T16:08:08.157Z,57.09
2022-12-28T16:11:55.035Z,57.16
2022-12-28T16:15:39.546Z,58.01
2022-12-28T16:19:23.140Z,58.92
2022-12-28T16:23:05.878Z,58.56
2022-12-28T16:26:48.684Z,58.86
2022-12-28T16:30:31.396Z,59.39
2022-12-28T16:34:17.727Z,59.82
2022-12-28T16:38:00.399Z,59.76
2022-12-28T16:41:43.382Z,59.74
2022-12-28T16:45:26.280Z,60.18
2022-12-28T16:49:10.914Z,60.46
2022-12-28T16:52:54.980Z,60.11
2022-12-28T16:56:37.680Z,60.54
2022-12-28T17:00:20.541Z,60.33
2022-12-28T17:04:04.319Z,61.12
2022-12-28T17:07:47.373Z,61.43
2022-12-28T17:11:31.481Z,61.77
2022-12-28T17:15:14.195Z,61.86
2022-12-28T17:18:57.041Z,62.30
2022-12-28T17:22:40.103Z,62.76
2022-12-28T17:26:23.023Z,63.35
2022-12-28T17:30:07.844Z,63.48
2022-12-28T17:33:51.998Z,63.99
2022-12-28T17:37:34.734Z,64.03
2022-12-28T17:41:19.641Z,64.22
2022-12-28T17:45:06.154Z,64.89
2022-12-28T17:48:55.380Z,64.59
2022-12-28T17:52:38.149Z,64.37
2022-12-28T17:56:20.934Z,64.37
2022-12-28T18:00:04.245Z,64.57
2022-12-28T18:03:47.108Z,64.70
2022-12-28T18:07:31.205Z,65.11
2022-12-28T18:11:14.211Z,65.27
2022-12-28T18:14:56.895Z,65.49
2022-12-28T18:18:39.638Z,65.76
2022-12-28T18:22:23.062Z,65.84
2022-12-28T18:26:08.715Z,65.93
2022-12-28T18:29:52.156Z,66.33
2022-12-28T18:33:35.476Z,66.25
2022-12-28T18:37:18.199Z,66.61
2022-12-28T18:41:01.074Z,67.02
2022-12-28T18:44:45.261Z,67.60
2022-12-28T18:48:28.676Z,67.07
2022-12-28T18:52:11.378Z,67.43
2022-12-28T18:55:58.503Z,67.64
2022-12-28T18:59:41.169Z,67.65
2022-12-28T19:03:25.334Z,68.10
2022-12-28T19:07:08.185Z,68.03
2022-12-28T19:10:51.181Z,67.75
2022-12-28T19:14:33.855Z,67.97
2022-12-28T19:18:16.486Z,68.45
2022-12-28T19:22:00.490Z,68.48
2022-12-28T19:25:43.139Z,68.42
2022-12-28T19:29:25.812Z,68.76
2022-12-28T19:33:08.455Z,69.31
2022-12-28T19:36:51.142Z,67.89
2022-12-28T19:40:35.216Z,67.84
2022-12-28T19:44:20.367Z,67.88
2022-12-28T19:48:03.083Z,67.74
2022-12-28T19:51:45.768Z,67.91
2022-12-28T19:55:29.191Z,68.40
2022-12-28T19:59:13.254Z,68.72
2022-12-28T20:02:55.960Z,69.75
2022-12-28T20:06:38.974Z,69.14
2022-12-28T20:10:21.698Z,68.05
2022-12-28T20:14:05.320Z,68.12
2022-12-28T20:17:49.357Z,67.62
2022-12-28T20:21:32.365Z,67.75
2022-12-28T20:25:15.220Z,67.74
2022-12-28T20:28:59.181Z,66.94
2022-12-28T20:32:44.994Z,66.27
2022-12-28T20:36:31.011Z,65.76
2022-12-28T20:40:13.852Z,65.13
2022-12-28T20:43:55.559Z,64.10
2022-12-28T20:47:38.263Z,62.63
2022-12-28T20:51:20.916Z,62.23
2022-12-28T20:55:05.262Z,61.59
2022-12-28T20:58:48.082Z,61.28
2022-12-28T21:02:30.766Z,61.24
2022-12-28T21:06:13.889Z,60.82
2022-12-28T21:09:56.724Z,60.86
2022-12-28T21:13:44.509Z,60.66
2022-12-28T21:17:27.692Z,60.62
2022-12-28T21:21:15.159Z,60.57
2022-12-28T21:24:57.806Z,60.31
2022-12-28T21:28:42.087Z,60.41
2022-12-28T21:32:24.747Z,60.38
2022-12-28T21:36:09.846Z,60.27
2022-12-28T21:39:52.531Z,60.59
2022-12-28T21:43:35.530Z,60.74
2022-12-28T21:47:20.020Z,60.60
2022-12-28T21:51:27.476Z,60.86
2022-12-28T21:55:28.607Z,61.17
2022-12-28T21:59:11.940Z,60.74
2022-12-28T22:03:13.866Z,61.11
2022-12-28T22:06:57.269Z,60.97
2022-12-28T22:10:59.177Z,61.46
2022-12-28T22:14:41.897Z,61.62
2022-12-28T22:22:28.730Z,61.76
2022-12-28T22:26:11.373Z,61.40
2022-12-28T22:29:55.245Z,61.24
2022-12-28T22:33:39.597Z,61.33
2022-12-28T22:37:22.243Z,60.60
2022-12-28T22:41:05.011Z,61.28
2022-12-28T22:44:47.640Z,61.49
2022-12-28T22:48:31.066Z,61.41
2022-12-28T22:52:15.192Z,60.67
2022-12-28T22:55:58.867Z,60.04
2022-12-28T22:59:41.509Z,60.22
2022-12-28T23:03:24.259Z,60.41
2022-12-28T23:07:07.120Z,60.13
2022-12-28T23:10:56.096Z,59.70
2022-12-28T23:14:56.269Z,59.49
2022-12-28T23:18:56.505Z,59.48
2022-12-28T23:22:56.892Z,59.13
2022-12-28T23:26:58.410Z,59.07
2022-12-28T23:30:43.634Z,59.15
2022-12-28T23:34:26.338Z,59.13
2022-12-28T23:38:09.118Z,58.42
2022-12-28T23:41:53.483Z,58.55
2022-12-28T23:45:36.955Z,58.23
2022-12-28T23:49:19.944Z,58.77
2022-12-28T23:53:02.598Z,58.28
2022-12-28T23:56:45.871Z,58.03
